プーケット の空港の天気 - METARとTAF

プーケット国際空港 ( VTSP / HKT ) - タイ プーケット県
飛行場実況気象(Metar)
観測時間02/20 22:00 ICT (02/20 15:00 UTC)
風向・風速北西 2m/s
視程9000m
天気現象
少しの雲 雲底高度 610m
気温28℃
湿度74%
気圧1012hPa
METARVTSP 201500Z 32004KT 9000 FEW020 28/23 Q1012 NOSIG
過去の天気等 Google飛行場航空写真 Wunderground天気予報

過去48時間のMETAR

飛行場予報(TAF)
発表時間: 2/20 18:00 ICT (2/20 11:00 UTC)
予報対象時間: 20日19時 ICT ~ 22日1時 ICT
風向・風速西北西 6m/s
視程9,000m
少しの雲 雲底高度 610m
20日22時 ICT ~ 20日24時 ICT に徐々に
風向・風速不定 1m/s
視程7,000m
少しの雲 雲底高度 550m
全天の4割程度の雲 雲底高度 3,050m
21日5時 ICT ~ 21日7時 ICT に徐々に
風向・風速東 6m/s
少しの雲 雲底高度 610m
TAF VTSP 201100Z 2012/2118 30012KT 9000 FEW020
BECMG 2015/2017 VRB02KT 7000 FEW018 SCT100
BECMG 2022/2024 08012KT FEW020